createdAt,value
2023-05-19T11:50:20.748Z,1006.00
2023-05-19T11:50:31.573Z,1006.06
2023-05-19T11:50:41.577Z,1006.05
2023-05-19T11:50:51.582Z,1006.05
2023-05-19T11:51:01.578Z,1006.06
2023-05-19T11:51:11.583Z,1006.07
2023-05-19T11:51:21.600Z,1006.09
2023-05-19T11:51:31.572Z,1006.07
2023-05-19T11:51:51.553Z,1006.05
2023-05-19T11:52:01.553Z,1006.04
2023-05-19T11:52:11.570Z,1006.04
2023-05-19T11:52:21.565Z,1006.04
2023-05-19T11:52:31.566Z,1006.04
2023-05-19T11:52:41.619Z,1006.06
2023-05-19T11:52:51.576Z,1006.06
2023-05-19T11:53:01.656Z,1006.04
2023-05-19T11:53:21.572Z,1006.04
2023-05-19T11:53:33.287Z,1006.02
2023-05-19T11:53:41.565Z,1006.04
2023-05-19T11:53:51.572Z,1006.03
2023-05-19T11:54:01.563Z,1006.03
2023-05-19T11:54:11.572Z,1006.02
2023-05-19T11:54:31.556Z,1006.01
2023-05-19T11:54:41.562Z,1006.02
2023-05-19T11:54:51.551Z,1006.02
2023-05-19T11:55:01.602Z,1006.01
2023-05-19T11:55:11.556Z,1006.03
2023-05-19T11:55:21.543Z,1006.04
2023-05-19T11:55:31.558Z,1006.04
2023-05-19T11:55:51.972Z,1006.05
2023-05-19T11:56:01.526Z,1006.04
2023-05-19T11:56:11.612Z,1006.04
2023-05-19T11:56:21.556Z,1006.05
2023-05-19T11:56:31.534Z,1006.07
2023-05-19T11:56:41.542Z,1006.04
2023-05-19T11:56:51.595Z,1006.04
2023-05-19T11:57:01.546Z,1006.03
2023-05-19T11:57:21.525Z,1006.06
2023-05-19T11:57:31.527Z,1006.06
2023-05-19T11:57:44.750Z,1006.07
2023-05-19T11:58:03.066Z,1006.05
2023-05-19T11:58:09.351Z,1006.05
2023-05-19T11:58:15.466Z,1006.05
2023-05-19T11:58:25.460Z,1006.04
2023-05-19T11:58:35.458Z,1006.05
2023-05-19T11:58:45.426Z,1006.05
2023-05-19T11:58:55.474Z,1006.04
2023-05-19T11:59:15.440Z,1006.03
2023-05-19T11:59:25.458Z,1006.02
2023-05-19T11:59:36.209Z,1006.02
2023-05-19T11:59:45.494Z,1006.03
2023-05-19T11:59:55.429Z,1006.02
2023-05-19T12:00:05.472Z,1006.04
2023-05-19T12:00:25.434Z,1006.07
2023-05-19T12:00:35.454Z,1006.07
2023-05-19T12:00:45.422Z,1006.08
2023-05-19T12:00:55.444Z,1006.08
2023-05-19T12:01:05.428Z,1006.07
2023-05-19T12:01:15.442Z,1006.07
2023-05-19T12:01:25.447Z,1006.08
2023-05-19T12:01:35.446Z,1006.06
2023-05-19T12:01:45.453Z,1006.07
2023-05-19T12:01:55.477Z,1006.07
2023-05-19T12:02:15.460Z,1006.07
2023-05-19T12:02:25.589Z,1006.05
2023-05-19T12:02:35.537Z,1006.06
2023-05-19T12:02:45.473Z,1006.06
2023-05-19T12:02:55.462Z,1006.06
2023-05-19T12:03:05.837Z,1006.07
2023-05-19T12:03:15.760Z,1006.07
2023-05-19T12:03:35.525Z,1006.06
2023-05-19T12:03:45.511Z,1006.06
2023-05-19T12:03:55.580Z,1006.06
2023-05-19T12:04:05.481Z,1006.07
2023-05-19T12:04:15.418Z,1006.06
2023-05-19T12:04:25.417Z,1006.06
2023-05-19T12:04:45.433Z,1006.08
2023-05-19T12:04:55.435Z,1006.08
2023-05-19T12:05:05.552Z,1006.06
2023-05-19T12:05:15.610Z,1006.06
2023-05-19T12:05:25.461Z,1006.06
2023-05-19T12:05:39.176Z,1006.05
2023-05-19T12:05:47.396Z,1006.07
2023-05-19T12:05:56.626Z,1006.08
2023-05-19T12:06:06.459Z,1006.08
2023-05-19T12:06:16.484Z,1006.07
2023-05-19T12:06:26.453Z,1006.08
2023-05-19T12:06:36.532Z,1006.07
2023-05-19T12:06:56.430Z,1006.07
2023-05-19T12:07:06.421Z,1006.04
2023-05-19T12:07:16.427Z,1006.05
2023-05-19T12:07:26.442Z,1006.04
2023-05-19T12:07:36.417Z,1006.04
2023-05-19T12:07:46.436Z,1006.03
2023-05-19T12:08:06.489Z,1006.03
2023-05-19T12:08:16.432Z,1006.04
2023-05-19T12:08:26.422Z,1006.04
2023-05-19T12:08:36.424Z,1006.04
2023-05-19T12:08:46.439Z,1006.03
2023-05-19T12:08:56.426Z,1006.04
2023-05-19T12:09:16.415Z,1006.07
2023-05-19T12:09:26.425Z,1006.07
2023-05-19T12:09:36.420Z,1006.05
2023-05-19T12:09:46.407Z,1006.06
2023-05-19T12:09:56.423Z,1006.05
2023-05-19T12:10:06.425Z,1006.06
2023-05-19T12:10:26.427Z,1006.08
2023-05-19T12:10:36.428Z,1006.05
2023-05-19T12:10:46.403Z,1006.04
2023-05-19T12:10:56.438Z,1006.05
2023-05-19T12:11:06.397Z,1006.07
2023-05-19T12:11:18.024Z,1006.07
2023-05-19T12:11:36.403Z,1006.07
2023-05-19T12:11:46.397Z,1006.08
2023-05-19T12:11:56.414Z,1006.07
2023-05-19T12:12:06.396Z,1006.07
2023-05-19T12:12:16.412Z,1006.06
2023-05-19T12:12:26.416Z,1006.07
2023-05-19T12:12:36.422Z,1006.09
2023-05-19T12:12:46.410Z,1006.10
2023-05-19T12:13:06.406Z,1006.10
2023-05-19T12:13:16.403Z,1006.08
2023-05-19T12:13:26.398Z,1006.09
2023-05-19T12:13:36.398Z,1006.08
2023-05-19T12:13:46.389Z,1006.10
2023-05-19T12:13:56.394Z,1006.11
2023-05-19T12:14:06.409Z,1006.10
2023-05-19T12:14:26.376Z,1006.10
2023-05-19T12:14:36.387Z,1006.09
2023-05-19T12:14:46.388Z,1006.10
2023-05-19T12:14:56.392Z,1006.10
2023-05-19T12:15:06.377Z,1006.10
2023-05-19T12:15:16.386Z,1006.11
2023-05-19T12:15:26.380Z,1006.10
2023-05-19T12:15:36.395Z,1006.11
2023-05-19T12:15:56.381Z,1006.10
2023-05-19T12:16:06.446Z,1006.10
2023-05-19T12:16:16.429Z,1006.11
2023-05-19T12:16:26.390Z,1006.10
2023-05-19T12:16:36.417Z,1006.09
2023-05-19T12:16:46.517Z,1006.09
2023-05-19T12:16:56.388Z,1006.08
2023-05-19T12:17:06.394Z,1006.08
2023-05-19T12:17:16.398Z,1006.10
2023-05-19T12:17:26.430Z,1006.10
2023-05-19T12:17:46.395Z,1006.09
2023-05-19T12:17:56.384Z,1006.08
2023-05-19T12:18:06.406Z,1006.08
2023-05-19T12:18:16.389Z,1006.08
2023-05-19T12:18:26.357Z,1006.07
2023-05-19T12:18:36.365Z,1006.05
2023-05-19T12:18:56.395Z,1006.04
2023-05-19T12:19:06.498Z,1006.06
2023-05-19T12:19:16.426Z,1006.07
2023-05-19T12:19:26.573Z,1006.07
2023-05-19T12:19:36.370Z,1006.07
2023-05-19T12:19:46.377Z,1006.07
2023-05-19T12:19:56.374Z,1006.07
2023-05-19T12:20:16.377Z,1006.08
2023-05-19T12:20:26.412Z,1006.06
2023-05-19T12:20:36.614Z,1006.05
2023-05-19T12:20:46.365Z,1006.05
2023-05-19T12:20:56.363Z,1006.05
2023-05-19T12:21:06.376Z,1006.07
2023-05-19T12:21:34.312Z,1006.05
2023-05-19T12:21:39.516Z,1006.06
2023-05-19T12:21:47.378Z,1006.04
2023-05-19T12:21:57.355Z,1006.03
2023-05-19T12:22:07.385Z,1006.04
2023-05-19T12:22:17.395Z,1006.04
2023-05-19T12:22:27.361Z,1006.03
2023-05-19T12:22:47.365Z,1006.02
2023-05-19T12:22:57.379Z,1006.04
2023-05-19T12:23:07.372Z,1006.06
2023-05-19T12:23:17.372Z,1006.07
2023-05-19T12:23:27.382Z,1006.07
2023-05-19T12:23:37.360Z,1006.05
2023-05-19T12:23:57.358Z,1006.04
2023-05-19T12:24:07.363Z,1006.04
2023-05-19T12:24:17.354Z,1006.03
2023-05-19T12:24:27.364Z,1006.03
2023-05-19T12:24:37.363Z,1006.04
2023-05-19T12:24:47.451Z,1006.04
2023-05-19T12:25:07.355Z,1006.05
2023-05-19T12:25:17.375Z,1006.04
2023-05-19T12:25:27.361Z,1006.01
2023-05-19T12:25:37.480Z,1006.01
2023-05-19T12:25:47.362Z,1006.02
2023-05-19T12:25:57.347Z,1006.02
2023-05-19T12:26:07.357Z,1006.03
2023-05-19T12:26:17.370Z,1006.03
2023-05-19T12:26:37.339Z,1006.03
2023-05-19T12:26:47.361Z,1006.04
2023-05-19T12:26:57.347Z,1006.05
2023-05-19T12:27:07.384Z,1006.04
2023-05-19T12:27:17.356Z,1006.04
2023-05-19T12:27:27.350Z,1006.04
2023-05-19T12:27:37.345Z,1006.05
2023-05-19T12:27:58.242Z,1006.05
2023-05-19T12:28:07.381Z,1006.03
2023-05-19T12:28:17.358Z,1006.05
2023-05-19T12:28:27.335Z,1006.04
2023-05-19T12:28:37.332Z,1006.05
2023-05-19T12:28:47.328Z,1006.04
2023-05-19T12:29:07.339Z,1006.07
2023-05-19T12:29:17.332Z,1006.09
2023-05-19T12:29:27.327Z,1006.07
2023-05-19T12:29:37.331Z,1006.08
2023-05-19T12:29:47.344Z,1006.09
2023-05-19T12:29:57.354Z,1006.10
2023-05-19T12:30:07.339Z,1006.09
2023-05-19T12:30:17.357Z,1006.11
2023-05-19T12:30:27.341Z,1006.10
2023-05-19T12:30:37.694Z,1006.08
2023-05-19T12:30:47.342Z,1006.06
2023-05-19T12:31:07.352Z,1006.07
2023-05-19T12:31:17.350Z,1006.10
2023-05-19T12:31:27.374Z,1006.12
2023-05-19T12:31:37.376Z,1006.12
2023-05-19T12:31:47.463Z,1006.11
2023-05-19T12:31:57.364Z,1006.11
2023-05-19T12:32:17.308Z,1006.09
2023-05-19T12:32:27.342Z,1006.10
2023-05-19T12:32:37.355Z,1006.08
2023-05-19T12:32:47.340Z,1006.10
2023-05-19T12:32:57.317Z,1006.10
2023-05-19T12:33:07.354Z,1006.11
2023-05-19T12:33:17.322Z,1006.10
2023-05-19T12:33:37.320Z,1006.11
2023-05-19T12:33:47.330Z,1006.12
2023-05-19T12:33:57.324Z,1006.09
2023-05-19T12:34:07.325Z,1006.11
2023-05-19T12:34:17.331Z,1006.10
2023-05-19T12:34:27.322Z,1006.11
2023-05-19T12:34:47.324Z,1006.08
2023-05-19T12:34:57.298Z,1006.07
2023-05-19T12:35:07.312Z,1006.09
2023-05-19T12:35:17.312Z,1006.10
2023-05-19T12:35:27.312Z,1006.10
2023-05-19T12:35:37.307Z,1006.08
2023-05-19T12:35:57.313Z,1006.09
2023-05-19T12:36:07.322Z,1006.09
2023-05-19T12:36:17.311Z,1006.08
2023-05-19T12:36:27.320Z,1006.08
2023-05-19T12:36:37.332Z,1006.07
2023-05-19T12:36:47.297Z,1006.06
2023-05-19T12:37:07.360Z,1006.07
2023-05-19T12:37:17.299Z,1006.06
2023-05-19T12:37:27.292Z,1006.06
2023-05-19T12:37:37.306Z,1006.05
2023-05-19T12:37:47.305Z,1006.03
2023-05-19T12:37:57.305Z,1006.05
2023-05-19T12:38:17.306Z,1006.06
2023-05-19T12:38:27.298Z,1006.07
2023-05-19T12:38:37.302Z,1006.07
2023-05-19T12:38:47.307Z,1006.06
2023-05-19T12:38:57.289Z,1006.07
2023-05-19T12:39:07.302Z,1006.07
2023-05-19T12:39:27.289Z,1006.07
2023-05-19T12:39:37.280Z,1006.07
2023-05-19T12:39:47.297Z,1006.08
2023-05-19T12:39:57.277Z,1006.06
2023-05-19T12:40:07.302Z,1006.06
2023-05-19T12:40:17.338Z,1006.09
2023-05-19T12:40:27.295Z,1006.09
2023-05-19T12:40:37.882Z,1006.08
2023-05-19T12:40:47.300Z,1006.08
2023-05-19T12:40:57.293Z,1006.06
2023-05-19T12:41:17.297Z,1006.06
2023-05-19T12:41:27.302Z,1006.06
2023-05-19T12:41:37.276Z,1006.05
2023-05-19T12:41:47.289Z,1006.05
2023-05-19T12:41:57.309Z,1006.05
2023-05-19T12:42:07.300Z,1006.06
2023-05-19T12:42:27.291Z,1006.06
2023-05-19T12:42:37.268Z,1006.06
2023-05-19T12:42:47.279Z,1006.06
2023-05-19T12:42:57.295Z,1006.06
2023-05-19T12:43:07.292Z,1006.04
2023-05-19T12:43:17.285Z,1006.05
2023-05-19T12:43:27.302Z,1006.06
2023-05-19T12:43:37.274Z,1006.05
2023-05-19T12:43:47.294Z,1006.05
2023-05-19T12:44:07.290Z,1006.05
2023-05-19T12:44:17.276Z,1006.06
2023-05-19T12:44:27.281Z,1006.07
2023-05-19T12:44:37.277Z,1006.06
2023-05-19T12:44:47.290Z,1006.07
2023-05-19T12:44:57.287Z,1006.07
2023-05-19T12:45:17.280Z,1006.07
2023-05-19T12:45:27.258Z,1006.07
2023-05-19T12:45:37.540Z,1006.08
2023-05-19T12:45:47.289Z,1006.07
2023-05-19T12:45:57.311Z,1006.07
2023-05-19T12:46:07.272Z,1006.06
2023-05-19T12:46:27.290Z,1006.10
2023-05-19T12:46:37.271Z,1006.11
2023-05-19T12:46:47.273Z,1006.10
2023-05-19T12:46:57.268Z,1006.09
2023-05-19T12:47:07.277Z,1006.09
2023-05-19T12:47:17.244Z,1006.11
2023-05-19T12:47:27.314Z,1006.10
2023-05-19T12:47:47.308Z,1006.09
2023-05-19T12:47:57.324Z,1006.08
2023-05-19T12:48:07.441Z,1006.08
2023-05-19T12:48:17.353Z,1006.09
2023-05-19T12:48:27.266Z,1006.09
2023-05-19T12:48:37.265Z,1006.10
2023-05-19T12:48:47.261Z,1006.10
2023-05-19T12:48:57.256Z,1006.10
2023-05-19T12:49:07.280Z,1006.10
2023-05-19T12:49:17.258Z,1006.11
2023-05-19T12:49:37.265Z,1006.07
2023-05-19T12:49:47.267Z,1006.08
2023-05-19T12:49:57.270Z,1006.10
2023-05-19T12:50:07.252Z,1006.10
2023-05-19T12:50:17.259Z,1006.09
2023-05-19T12:50:27.257Z,1006.10
2023-05-19T12:50:47.257Z,1006.09
2023-05-19T12:50:57.252Z,1006.10
2023-05-19T12:51:07.240Z,1006.11
2023-05-19T12:51:17.243Z,1006.11
2023-05-19T12:51:27.243Z,1006.11
2023-05-19T12:51:37.245Z,1006.09
2023-05-19T12:51:57.244Z,1006.09
2023-05-19T12:52:11.841Z,1006.09
2023-05-19T12:52:18.258Z,1006.07
2023-05-19T12:52:28.232Z,1006.08
2023-05-19T12:52:38.235Z,1006.08
2023-05-19T12:52:48.239Z,1006.08
2023-05-19T12:52:58.246Z,1006.09
2023-05-19T12:53:08.242Z,1006.09
2023-05-19T12:53:28.247Z,1006.09
2023-05-19T12:53:38.232Z,1006.07
2023-05-19T12:53:48.236Z,1006.07
2023-05-19T12:53:58.240Z,1006.06
2023-05-19T12:54:08.299Z,1006.06
2023-05-19T12:54:18.319Z,1006.07
2023-05-19T12:54:28.278Z,1006.06
2023-05-19T12:54:38.273Z,1006.06
2023-05-19T12:54:58.276Z,1006.05
2023-05-19T12:55:08.324Z,1006.06
2023-05-19T12:55:18.250Z,1006.05
2023-05-19T12:55:28.229Z,1006.05
2023-05-19T12:55:38.222Z,1006.07
2023-05-19T12:55:48.234Z,1006.07
2023-05-19T12:56:08.236Z,1006.05
2023-05-19T12:56:18.223Z,1006.06
2023-05-19T12:56:28.224Z,1006.05
2023-05-19T12:56:38.222Z,1006.04
2023-05-19T12:56:48.231Z,1006.05
2023-05-19T12:56:58.204Z,1006.05
2023-05-19T12:57:18.228Z,1006.05
2023-05-19T12:57:28.215Z,1006.05
2023-05-19T12:57:38.219Z,1006.05
2023-05-19T12:57:49.328Z,1006.04
2023-05-19T12:57:58.377Z,1006.04
2023-05-19T12:58:08.245Z,1006.03
2023-05-19T12:58:28.222Z,1006.03
2023-05-19T12:58:38.237Z,1006.03
2023-05-19T12:58:48.224Z,1006.04
2023-05-19T12:58:58.211Z,1006.06
2023-05-19T12:59:08.234Z,1006.07
2023-05-19T12:59:26.908Z,1006.07
2023-05-19T12:59:42.140Z,1006.06
2023-05-19T12:59:48.238Z,1006.06
2023-05-19T12:59:58.275Z,1006.04
2023-05-19T13:00:08.239Z,1006.04
2023-05-19T13:00:18.247Z,1006.04
2023-05-19T13:00:28.716Z,1006.04
2023-05-19T13:00:48.320Z,1006.01
2023-05-19T13:00:58.285Z,1006.04
2023-05-19T13:01:08.320Z,1006.04
2023-05-19T13:01:18.465Z,1006.05
2023-05-19T13:01:28.316Z,1006.06
2023-05-19T13:01:38.241Z,1006.04
2023-05-19T13:01:58.281Z,1006.06
2023-05-19T13:02:08.273Z,1006.06
2023-05-19T13:02:18.303Z,1006.07
2023-05-19T13:02:28.245Z,1006.06
2023-05-19T13:02:38.356Z,1006.06
2023-05-19T13:02:48.402Z,1006.08
2023-05-19T13:03:08.339Z,1006.07
2023-05-19T13:03:18.293Z,1006.08
2023-05-19T13:03:28.351Z,1006.08
2023-05-19T13:03:38.252Z,1006.07
2023-05-19T13:03:48.542Z,1006.08
2023-05-19T13:03:58.369Z,1006.06
2023-05-19T13:04:18.232Z,1006.06
2023-05-19T13:04:28.215Z,1006.06
2023-05-19T13:04:38.213Z,1006.06
2023-05-19T13:04:48.203Z,1006.08
2023-05-19T13:04:58.222Z,1006.08
2023-05-19T13:05:08.205Z,1006.08
2023-05-19T13:05:18.205Z,1006.06
2023-05-19T13:05:28.221Z,1006.07
2023-05-19T13:05:48.217Z,1006.06
2023-05-19T13:05:58.208Z,1006.06
2023-05-19T13:06:08.204Z,1006.07
2023-05-19T13:06:18.212Z,1006.08
2023-05-19T13:06:28.207Z,1006.08
2023-05-19T13:06:38.208Z,1006.07
2023-05-19T13:06:48.218Z,1006.05
2023-05-19T13:07:08.207Z,1006.04
2023-05-19T13:07:19.161Z,1006.05
2023-05-19T13:07:28.786Z,1006.06
2023-05-19T13:07:38.546Z,1006.04
2023-05-19T13:07:48.263Z,1006.04
2023-05-19T13:07:58.258Z,1006.03
2023-05-19T13:08:08.222Z,1006.03
2023-05-19T13:08:28.220Z,1006.03
2023-05-19T13:08:38.204Z,1006.01
2023-05-19T13:08:48.208Z,1006.01
2023-05-19T13:08:58.197Z,1006.02
2023-05-19T13:09:08.193Z,1006.02
2023-05-19T13:09:18.186Z,1006.02
2023-05-19T13:09:38.184Z,1006.01
2023-05-19T13:09:48.189Z,1005.99
2023-05-19T13:09:58.170Z,1005.98
2023-05-19T13:10:08.269Z,1005.98
2023-05-19T13:10:18.194Z,1005.98
2023-05-19T13:10:28.188Z,1005.98
2023-05-19T13:10:48.164Z,1005.97
2023-05-19T13:10:58.170Z,1005.98
2023-05-19T13:11:08.182Z,1005.97
2023-05-19T13:11:18.165Z,1005.96
2023-05-19T13:11:28.176Z,1005.97
2023-05-19T13:11:38.177Z,1005.98
2023-05-19T13:11:48.190Z,1005.98
2023-05-19T13:11:58.178Z,1005.98
2023-05-19T13:12:08.178Z,1005.96
2023-05-19T13:12:18.169Z,1005.96
2023-05-19T13:12:28.191Z,1005.96
2023-05-19T13:12:38.186Z,1005.98
2023-05-19T13:12:58.170Z,1005.95
2023-05-19T13:13:08.278Z,1005.96
2023-05-19T13:13:18.175Z,1005.98
2023-05-19T13:13:28.158Z,1005.98
2023-05-19T13:13:38.172Z,1005.95
2023-05-19T13:13:48.156Z,1005.96
2023-05-19T13:14:08.186Z,1005.96
2023-05-19T13:14:18.167Z,1005.97
2023-05-19T13:14:28.169Z,1005.97
2023-05-19T13:14:38.167Z,1005.96
2023-05-19T13:14:48.169Z,1005.96
2023-05-19T13:14:58.150Z,1005.97
2023-05-19T13:15:18.171Z,1005.96
2023-05-19T13:15:28.161Z,1005.98
2023-05-19T13:15:38.169Z,1005.99
2023-05-19T13:15:48.162Z,1005.99
2023-05-19T13:15:58.156Z,1005.98
2023-05-19T13:16:08.198Z,1005.98
2023-05-19T13:16:28.208Z,1005.96
2023-05-19T13:16:38.164Z,1005.95
2023-05-19T13:16:48.217Z,1005.95
2023-05-19T13:16:58.168Z,1005.96
2023-05-19T13:17:08.218Z,1005.96
2023-05-19T13:17:18.149Z,1005.95
2023-05-19T13:17:28.210Z,1005.96
2023-05-19T13:17:38.169Z,1005.95
2023-05-19T13:17:58.168Z,1005.95
2023-05-19T13:18:08.180Z,1005.94
2023-05-19T13:18:18.162Z,1005.95
2023-05-19T13:18:28.156Z,1005.95
2023-05-19T13:18:38.177Z,1005.95
2023-05-19T13:18:48.215Z,1005.96
2023-05-19T13:18:58.195Z,1005.95
2023-05-19T13:19:25.419Z,1005.97
2023-05-19T13:19:31.132Z,1005.98
2023-05-19T13:19:39.198Z,1005.97
2023-05-19T13:19:49.198Z,1005.98
2023-05-19T13:19:59.171Z,1005.98
2023-05-19T13:20:09.174Z,1005.99
2023-05-19T13:20:19.143Z,1005.98
2023-05-19T13:20:39.156Z,1005.97
2023-05-19T13:20:49.162Z,1005.97
2023-05-19T13:20:59.154Z,1005.98
2023-05-19T13:21:09.174Z,1005.98
2023-05-19T13:21:19.135Z,1005.99
2023-05-19T13:21:29.135Z,1005.98
2023-05-19T13:21:49.136Z,1005.99
2023-05-19T13:21:59.142Z,1006.00
2023-05-19T13:22:09.138Z,1005.99
2023-05-19T13:22:19.161Z,1005.98
2023-05-19T13:22:29.139Z,1005.98
2023-05-19T13:22:39.115Z,1005.97
2023-05-19T13:22:49.137Z,1005.98
2023-05-19T13:23:09.124Z,1005.97
2023-05-19T13:23:19.128Z,1005.97
2023-05-19T13:23:29.135Z,1005.96
2023-05-19T13:23:39.126Z,1005.95
2023-05-19T13:23:49.111Z,1005.95
2023-05-19T13:23:59.148Z,1005.96
2023-05-19T13:24:09.137Z,1005.98
2023-05-19T13:24:29.134Z,1005.98
2023-05-19T13:24:39.109Z,1005.98
2023-05-19T13:24:49.119Z,1005.98
2023-05-19T13:24:59.159Z,1005.99
2023-05-19T13:25:09.132Z,1005.99
2023-05-19T13:25:19.127Z,1005.99
2023-05-19T13:25:39.127Z,1005.98
2023-05-19T13:25:49.128Z,1005.97
2023-05-19T13:25:59.107Z,1005.96
2023-05-19T13:26:09.146Z,1005.96
2023-05-19T13:26:19.101Z,1005.96
2023-05-19T13:26:29.107Z,1005.97
2023-05-19T13:26:39.132Z,1005.98
2023-05-19T13:26:49.168Z,1005.98
2023-05-19T13:26:59.115Z,1005.97
2023-05-19T13:27:19.115Z,1005.93
2023-05-19T13:27:29.128Z,1005.91
2023-05-19T13:27:39.124Z,1005.91
2023-05-19T13:27:49.114Z,1005.90
2023-05-19T13:27:59.101Z,1005.91
2023-05-19T13:28:09.113Z,1005.91
2023-05-19T13:28:19.117Z,1005.90
2023-05-19T13:28:39.104Z,1005.89
2023-05-19T13:28:49.106Z,1005.89
2023-05-19T13:28:59.121Z,1005.88
2023-05-19T13:29:09.116Z,1005.87
2023-05-19T13:29:19.106Z,1005.87
2023-05-19T13:29:29.098Z,1005.86
2023-05-19T13:29:49.090Z,1005.86
2023-05-19T13:29:59.092Z,1005.86
2023-05-19T13:30:09.172Z,1005.85
2023-05-19T13:30:19.085Z,1005.85
2023-05-19T13:30:29.103Z,1005.84
2023-05-19T13:30:39.283Z,1005.82
2023-05-19T13:30:49.121Z,1005.82
2023-05-19T13:31:09.148Z,1005.83
2023-05-19T13:31:19.145Z,1005.83
2023-05-19T13:31:29.145Z,1005.83
2023-05-19T13:31:39.132Z,1005.84
2023-05-19T13:31:49.099Z,1005.83
2023-05-19T13:32:01.180Z,1005.82
2023-05-19T13:32:19.088Z,1005.82
2023-05-19T13:32:29.091Z,1005.81
2023-05-19T13:32:39.135Z,1005.80
2023-05-19T13:32:49.143Z,1005.81
2023-05-19T13:32:59.230Z,1005.80
2023-05-19T13:33:09.134Z,1005.80
2023-05-19T13:33:29.074Z,1005.78
2023-05-19T13:33:39.095Z,1005.78
2023-05-19T13:33:49.106Z,1005.80
2023-05-19T13:33:59.078Z,1005.81
2023-05-19T13:34:09.088Z,1005.83
2023-05-19T13:34:19.125Z,1005.81
2023-05-19T13:34:29.109Z,1005.79
2023-05-19T13:34:49.071Z,1005.80
2023-05-19T13:34:59.091Z,1005.80
2023-05-19T13:35:09.079Z,1005.81
2023-05-19T13:35:19.082Z,1005.81
2023-05-19T13:35:29.107Z,1005.80
2023-05-19T13:35:39.275Z,1005.81
2023-05-19T13:35:49.081Z,1005.81
2023-05-19T13:35:59.087Z,1005.81
2023-05-19T13:36:19.086Z,1005.81
2023-05-19T13:36:29.076Z,1005.82
2023-05-19T13:36:39.153Z,1005.82
2023-05-19T13:36:49.132Z,1005.83
2023-05-19T13:36:59.129Z,1005.83
2023-05-19T13:37:09.931Z,1005.81
2023-05-19T13:37:29.267Z,1005.82
2023-05-19T13:37:39.139Z,1005.83
2023-05-19T13:37:49.102Z,1005.82
2023-05-19T13:37:59.091Z,1005.81
2023-05-19T13:38:09.098Z,1005.82
2023-05-19T13:38:19.085Z,1005.81
2023-05-19T13:38:29.089Z,1005.83
2023-05-19T13:38:49.072Z,1005.82
2023-05-19T13:38:59.063Z,1005.83
2023-05-19T13:39:09.073Z,1005.81
2023-05-19T13:39:19.047Z,1005.82
2023-05-19T13:39:29.070Z,1005.83
2023-05-19T13:39:39.046Z,1005.81
2023-05-19T13:39:49.073Z,1005.81
2023-05-19T13:39:59.606Z,1005.82
2023-05-19T13:40:19.048Z,1005.81
2023-05-19T13:40:29.046Z,1005.83
2023-05-19T13:40:39.065Z,1005.82
2023-05-19T13:40:49.053Z,1005.83
2023-05-19T13:40:59.074Z,1005.84
2023-05-19T13:41:10.655Z,1005.82
2023-05-19T13:41:29.052Z,1005.80
2023-05-19T13:41:39.066Z,1005.80
2023-05-19T13:41:49.064Z,1005.80
2023-05-19T13:41:59.051Z,1005.81
2023-05-19T13:42:09.078Z,1005.81
2023-05-19T13:42:19.041Z,1005.80
2023-05-19T13:42:39.123Z,1005.80
2023-05-19T13:42:49.053Z,1005.81
2023-05-19T13:42:59.047Z,1005.82
2023-05-19T13:43:09.209Z,1005.83
2023-05-19T13:43:19.037Z,1005.82
2023-05-19T13:43:29.026Z,1005.83
2023-05-19T13:43:49.049Z,1005.84
2023-05-19T13:43:59.030Z,1005.82
2023-05-19T13:44:09.114Z,1005.81
2023-05-19T13:44:19.037Z,1005.81
2023-05-19T13:44:29.042Z,1005.81
2023-05-19T13:44:39.043Z,1005.82
2023-05-19T13:44:59.051Z,1005.85
2023-05-19T13:45:09.040Z,1005.83
2023-05-19T13:45:19.047Z,1005.82
2023-05-19T13:45:29.051Z,1005.83
2023-05-19T13:45:39.026Z,1005.83
2023-05-19T13:45:49.056Z,1005.85
2023-05-19T13:45:59.095Z,1005.84
2023-05-19T13:46:11.287Z,1005.84
2023-05-19T13:46:22.155Z,1005.85
2023-05-19T13:46:43.982Z,1005.86
2023-05-19T13:46:52.224Z,1005.85
2023-05-19T13:46:58.519Z,1005.86
2023-05-19T13:47:08.522Z,1005.86
2023-05-19T13:47:18.627Z,1005.86
2023-05-19T13:47:28.576Z,1005.85
2023-05-19T13:47:38.514Z,1005.84
2023-05-19T13:47:58.545Z,1005.84
2023-05-19T13:48:08.557Z,1005.83
2023-05-19T13:48:18.548Z,1005.83
2023-05-19T13:48:28.485Z,1005.82
2023-05-19T13:48:38.491Z,1005.83
2023-05-19T13:48:48.488Z,1005.81
2023-05-19T13:49:08.481Z,1005.80
2023-05-19T13:49:18.495Z,1005.79
2023-05-19T13:49:28.480Z,1005.80
2023-05-19T13:49:38.500Z,1005.79
2023-05-19T13:49:48.477Z,1005.78
2023-05-19T13:49:58.516Z,1005.80
2023-05-19T13:50:08.500Z,1005.79
2023-05-19T13:50:18.529Z,1005.79
2023-05-19T13:50:28.487Z,1005.79
2023-05-19T13:50:48.492Z,1005.80
2023-05-19T13:50:58.489Z,1005.82
2023-05-19T13:51:08.494Z,1005.82
2023-05-19T13:51:18.486Z,1005.81
2023-05-19T13:51:28.585Z,1005.80
2023-05-19T13:51:38.477Z,1005.79
2023-05-19T13:51:58.476Z,1005.80
2023-05-19T13:52:08.488Z,1005.81
2023-05-19T13:52:18.474Z,1005.80
2023-05-19T13:52:30.408Z,1005.80
2023-05-19T13:52:38.492Z,1005.80
2023-05-19T13:52:48.483Z,1005.80
2023-05-19T13:53:08.473Z,1005.77
2023-05-19T13:53:18.463Z,1005.78
2023-05-19T13:53:28.476Z,1005.78
2023-05-19T13:53:38.458Z,1005.80
2023-05-19T13:53:48.514Z,1005.81
2023-05-19T13:53:58.460Z,1005.81
2023-05-19T13:54:08.471Z,1005.81
2023-05-19T13:54:18.460Z,1005.81
2023-05-19T13:54:38.480Z,1005.81
2023-05-19T13:54:48.478Z,1005.80
2023-05-19T13:54:58.478Z,1005.80
2023-05-19T13:55:21.277Z,1005.74
2023-05-19T13:55:32.305Z,1005.80
2023-05-19T13:55:42.260Z,1005.81
2023-05-19T13:55:52.268Z,1005.82
2023-05-19T13:56:02.264Z,1005.82
2023-05-19T13:56:12.291Z,1005.81
2023-05-19T13:56:22.267Z,1005.82
2023-05-19T13:56:42.259Z,1005.82
2023-05-19T13:56:52.277Z,1005.82
2023-05-19T13:57:02.274Z,1005.81
2023-05-19T13:57:12.283Z,1005.81
2023-05-19T13:57:22.269Z,1005.81
2023-05-19T13:57:32.299Z,1005.83
2023-05-19T13:57:44.006Z,1005.83
2023-05-19T13:57:52.282Z,1005.84
2023-05-19T13:58:12.269Z,1005.83
2023-05-19T13:58:22.254Z,1005.82
2023-05-19T13:58:32.256Z,1005.83
2023-05-19T13:58:42.250Z,1005.83
2023-05-19T13:58:52.265Z,1005.82
2023-05-19T13:59:02.250Z,1005.82
2023-05-19T13:59:22.265Z,1005.82
2023-05-19T13:59:32.284Z,1005.82
2023-05-19T13:59:57.226Z,1005.79
2023-05-19T14:00:06.528Z,1005.80
2023-05-19T14:00:12.671Z,1005.77
2023-05-19T14:00:22.668Z,1005.77
2023-05-19T14:00:32.996Z,1005.78
2023-05-19T14:00:42.641Z,1005.79
2023-05-19T14:00:52.634Z,1005.78
2023-05-19T14:01:12.655Z,1005.76
2023-05-19T14:01:22.675Z,1005.75
2023-05-19T14:01:32.720Z,1005.75
2023-05-19T14:01:42.674Z,1005.75
2023-05-19T14:01:52.660Z,1005.75
2023-05-19T14:02:02.822Z,1005.72
2023-05-19T14:02:22.678Z,1005.72
2023-05-19T14:02:32.699Z,1005.72
2023-05-19T14:02:42.717Z,1005.71
2023-05-19T14:02:52.733Z,1005.72
2023-05-19T14:03:02.697Z,1005.72
2023-05-19T14:03:12.653Z,1005.73
2023-05-19T14:03:32.687Z,1005.73
2023-05-19T14:03:42.710Z,1005.73
2023-05-19T14:03:52.889Z,1005.71
2023-05-19T14:04:02.789Z,1005.72
2023-05-19T14:04:12.932Z,1005.71
2023-05-19T14:04:22.785Z,1005.71
2023-05-19T14:04:32.636Z,1005.72
2023-05-19T14:04:52.625Z,1005.71
2023-05-19T14:05:02.622Z,1005.73
2023-05-19T14:05:12.620Z,1005.72
2023-05-19T14:05:22.614Z,1005.72
2023-05-19T14:05:32.615Z,1005.71
2023-05-19T14:05:42.603Z,1005.69
2023-05-19T14:06:02.603Z,1005.70
2023-05-19T14:06:12.674Z,1005.69
2023-05-19T14:06:22.616Z,1005.70
2023-05-19T14:06:32.617Z,1005.70
2023-05-19T14:06:42.621Z,1005.73
2023-05-19T14:06:52.627Z,1005.72
2023-05-19T14:07:02.621Z,1005.71
2023-05-19T14:07:22.604Z,1005.73
2023-05-19T14:07:32.807Z,1005.70
2023-05-19T14:07:42.784Z,1005.70
2023-05-19T14:08:07.708Z,1005.62
2023-05-19T14:08:18.711Z,1005.68
2023-05-19T14:08:28.716Z,1005.69
2023-05-19T14:09:57.686Z,1005.65
2023-05-19T14:10:08.691Z,1005.69
2023-05-19T14:10:18.712Z,1005.71